Hunmanby, United Kingdom
Current Conditions -  °F | °C
As of 8:50 PM on Tuesday 25 Nov 2014 (Local Time) from EGXV Reporting Station
Haze Haze  
Wind Chill: 43°   Ceiling: 2000
Heat Index: 43°   Visibility: 4mi
Dew Point: 41°   Wind: 3mph
Humidity: 93%   Direction: 360°N
Pressure: 30.12"   Gusts: NA
Location:  54.18°N, 0.32°W
Report Text: EGXV 252050Z AUTO 36003KT 6000 HZ BKN020/// BKN035/// 06/05 Q1020
Loading
Personal Weather Stations






























Interactive Weather Map New forecast layout! Learn more

10-Day Weather Forecast

Advertisements
Track Severe Weather on mobile